createdAt,value
2022-11-07T00:00:53.951Z,8.80
2022-11-07T00:01:54.178Z,9.30
2022-11-07T00:02:54.336Z,7.20
2022-11-07T00:03:54.452Z,7.40
2022-11-07T00:04:54.621Z,8.10
2022-11-07T00:05:54.781Z,7.70
2022-11-07T00:06:54.942Z,7.50
2022-11-07T00:07:55.111Z,8.70
2022-11-07T00:08:55.305Z,9.10
2022-11-07T00:09:55.452Z,8.90
2022-11-07T00:10:55.649Z,7.40
2022-11-07T00:11:55.802Z,7.90
2022-11-07T00:12:56.015Z,8.00
2022-11-07T00:13:56.182Z,8.10
2022-11-07T00:14:56.340Z,7.30
2022-11-07T00:15:56.490Z,7.90
2022-11-07T00:16:56.689Z,7.20
2022-11-07T00:17:56.860Z,8.00
2022-11-07T00:18:57.028Z,8.40
2022-11-07T00:19:57.181Z,9.20
2022-11-07T00:20:57.347Z,9.00
2022-11-07T00:21:57.501Z,8.20
2022-11-07T00:22:57.714Z,7.60
2022-11-07T00:23:57.871Z,9.10
2022-11-07T00:24:58.039Z,10.20
2022-11-07T00:25:58.199Z,9.50
2022-11-07T00:26:58.423Z,7.10
2022-11-07T00:27:58.560Z,9.30
2022-11-07T00:28:58.731Z,10.60
2022-11-07T00:29:58.896Z,8.00
2022-11-07T00:30:59.088Z,8.40
2022-11-07T00:31:59.251Z,9.30
2022-11-07T00:33:00.460Z,10.30
2022-11-07T00:33:59.679Z,7.50
2022-11-07T00:34:59.809Z,7.70
2022-11-07T00:35:59.971Z,11.00
2022-11-07T00:37:00.139Z,7.00
2022-11-07T00:38:00.413Z,9.10
2022-11-07T00:39:00.478Z,7.70
2022-11-07T00:40:00.648Z,10.10
2022-11-07T00:41:00.818Z,8.20
2022-11-07T00:42:00.981Z,6.60
2022-11-07T00:43:01.164Z,8.10
2022-11-07T00:44:01.317Z,7.50
2022-11-07T00:45:01.510Z,8.50
2022-11-07T00:46:01.684Z,7.90
2022-11-07T00:47:01.838Z,11.00
2022-11-07T00:48:02.028Z,8.90
2022-11-07T00:49:02.183Z,10.40
2022-11-07T00:50:02.361Z,9.20
2022-11-07T00:51:02.522Z,9.50
2022-11-07T00:52:02.680Z,7.20
2022-11-07T00:53:02.855Z,7.90
2022-11-07T00:54:03.008Z,7.50
2022-11-07T00:55:03.208Z,8.80
2022-11-07T00:56:03.367Z,7.00
2022-11-07T00:57:03.547Z,7.00
2022-11-07T00:58:03.731Z,7.50
2022-11-07T00:59:03.887Z,8.40
2022-11-07T01:00:04.046Z,9.00
2022-11-07T01:01:04.239Z,9.10
2022-11-07T01:02:04.483Z,7.80
2022-11-07T01:03:04.597Z,9.10
2022-11-07T01:04:04.757Z,8.40
2022-11-07T01:05:04.919Z,8.60
2022-11-07T01:06:05.079Z,8.20
2022-11-07T01:07:05.275Z,7.70
2022-11-07T01:08:05.447Z,7.20
2022-11-07T01:09:05.607Z,6.70
2022-11-07T01:10:05.767Z,7.30
2022-11-07T01:11:05.927Z,7.20
2022-11-07T01:12:06.087Z,10.20
2022-11-07T01:13:06.268Z,8.20
2022-11-07T01:14:06.436Z,6.40
2022-11-07T01:15:06.587Z,7.30
2022-11-07T01:16:06.747Z,7.80
2022-11-07T01:17:06.906Z,6.40
2022-11-07T01:18:07.078Z,10.60
2022-11-07T01:19:07.247Z,6.10
2022-11-07T01:20:07.404Z,7.40
2022-11-07T01:21:10.981Z,7.40
2022-11-07T01:22:08.778Z,6.60
2022-11-07T01:23:07.976Z,6.70
2022-11-07T01:24:08.129Z,5.90
2022-11-07T01:25:08.294Z,5.70
2022-11-07T01:26:08.478Z,6.60
2022-11-07T01:27:08.637Z,5.90
2022-11-07T01:28:08.851Z,10.20
2022-11-07T01:29:09.017Z,7.10
2022-11-07T01:30:09.177Z,5.60
2022-11-07T01:31:09.336Z,6.70
2022-11-07T01:32:09.497Z,7.70
2022-11-07T01:33:09.666Z,6.50
2022-11-07T01:34:09.836Z,7.00
2022-11-07T01:35:09.988Z,7.00
2022-11-07T01:36:10.188Z,7.10
2022-11-07T01:37:10.346Z,6.80
2022-11-07T01:38:10.526Z,6.80
2022-11-07T01:39:10.686Z,6.90
2022-11-07T01:40:10.848Z,7.40
2022-11-07T01:41:11.005Z,8.60
2022-11-07T01:42:11.168Z,7.50
2022-11-07T01:43:11.441Z,6.40
2022-11-07T01:44:11.505Z,7.00
2022-11-07T01:45:11.667Z,5.80
2022-11-07T01:46:11.827Z,7.00
2022-11-07T01:47:11.986Z,6.20
2022-11-07T01:48:12.155Z,8.40
2022-11-07T01:49:12.316Z,6.60
2022-11-07T01:50:12.480Z,5.80
2022-11-07T01:51:12.636Z,5.20
2022-11-07T01:52:12.796Z,5.40
2022-11-07T01:53:13.304Z,6.30
2022-11-07T01:54:13.137Z,7.10
2022-11-07T01:55:13.294Z,6.80
2022-11-07T01:56:13.456Z,5.40
2022-11-07T01:57:13.605Z,5.80
2022-11-07T01:58:13.824Z,5.80
2022-11-07T01:59:13.978Z,5.70
2022-11-07T02:00:14.145Z,5.50
2022-11-07T02:01:14.306Z,6.00
2022-11-07T02:02:14.601Z,5.90
2022-11-07T02:03:14.951Z,7.40
2022-11-07T02:04:14.834Z,7.70
2022-11-07T02:05:14.996Z,5.90
2022-11-07T02:06:15.155Z,6.50
2022-11-07T02:07:15.315Z,5.40
2022-11-07T02:08:15.495Z,7.50
2022-11-07T02:09:15.644Z,5.20
2022-11-07T02:10:15.842Z,6.20
2022-11-07T02:11:16.084Z,6.30
2022-11-07T02:12:16.173Z,6.80
2022-11-07T02:13:16.636Z,9.20
2022-11-07T02:14:16.486Z,6.30
2022-11-07T02:15:16.644Z,5.30
2022-11-07T02:16:16.805Z,6.10
2022-11-07T02:17:16.964Z,5.10
2022-11-07T02:18:17.144Z,5.10
2022-11-07T02:19:17.308Z,5.80
2022-11-07T02:20:17.464Z,5.50
2022-11-07T02:21:17.623Z,5.20
2022-11-07T02:22:17.826Z,5.10
2022-11-07T02:23:17.994Z,7.80
2022-11-07T02:24:18.155Z,4.40
2022-11-07T02:25:18.314Z,5.30
2022-11-07T02:26:18.524Z,5.10
2022-11-07T02:27:18.683Z,4.90
2022-11-07T02:28:18.866Z,5.40
2022-11-07T02:29:19.023Z,4.30
2022-11-07T02:30:19.184Z,6.70
2022-11-07T02:31:19.341Z,5.90
2022-11-07T02:32:19.534Z,5.70
2022-11-07T02:33:19.704Z,5.20
2022-11-07T02:34:19.861Z,4.40
2022-11-07T02:35:20.014Z,4.90
2022-11-07T02:36:20.206Z,5.10
2022-11-07T02:37:20.364Z,7.90
2022-11-07T02:38:20.544Z,4.40
2022-11-07T02:39:20.694Z,5.70
2022-11-07T02:40:20.893Z,4.70
2022-11-07T02:41:21.072Z,5.60
2022-11-07T02:42:21.275Z,5.90
2022-11-07T02:43:21.412Z,6.30
2022-11-07T02:44:21.576Z,6.60
2022-11-07T02:45:21.732Z,6.20
2022-11-07T02:46:21.892Z,4.60
2022-11-07T02:47:22.049Z,7.10
2022-11-07T02:48:22.225Z,4.80
2022-11-07T02:49:22.394Z,4.70
2022-11-07T02:50:22.551Z,3.90
2022-11-07T02:51:22.702Z,5.10
2022-11-07T02:52:22.870Z,4.40
2022-11-07T02:53:23.042Z,5.20
2022-11-07T02:54:23.202Z,5.20
2022-11-07T02:55:23.370Z,6.50
2022-11-07T02:56:23.532Z,3.60
2022-11-07T02:57:23.693Z,7.10
2022-11-07T02:58:23.863Z,5.70
2022-11-07T02:59:26.978Z,4.20
2022-11-07T03:00:24.193Z,4.70
2022-11-07T03:01:24.426Z,4.20
2022-11-07T03:02:24.645Z,4.70
2022-11-07T03:03:24.721Z,3.80
2022-11-07T03:04:24.882Z,4.80
2022-11-07T03:05:25.042Z,4.20
2022-11-07T03:06:25.202Z,4.60
2022-11-07T03:07:25.361Z,5.70
2022-11-07T03:08:25.550Z,4.70
2022-11-07T03:09:25.701Z,4.40
2022-11-07T03:10:25.862Z,5.00
2022-11-07T03:11:26.032Z,4.00
2022-11-07T03:12:26.191Z,4.50
2022-11-07T03:13:26.361Z,3.70
2022-11-07T03:14:26.575Z,4.80
2022-11-07T03:15:26.682Z,3.40
2022-11-07T03:16:26.874Z,4.70
2022-11-07T03:17:27.031Z,6.80
2022-11-07T03:18:27.212Z,6.60
2022-11-07T03:19:27.372Z,4.50
2022-11-07T03:20:27.551Z,5.90
2022-11-07T03:21:27.711Z,4.60
2022-11-07T03:22:27.870Z,11.00
2022-11-07T03:23:28.052Z,7.30
2022-11-07T03:24:28.216Z,4.00
2022-11-07T03:25:28.371Z,3.40
2022-11-07T03:26:28.529Z,4.00
2022-11-07T03:27:28.681Z,5.50
2022-11-07T03:28:28.862Z,3.90
2022-11-07T03:29:29.011Z,4.10
2022-11-07T03:30:29.208Z,5.40
2022-11-07T03:31:29.363Z,3.70
2022-11-07T03:32:29.540Z,3.20
2022-11-07T03:33:29.710Z,3.00
2022-11-07T03:34:29.873Z,3.60
2022-11-07T03:35:30.021Z,3.60
2022-11-07T03:36:30.220Z,4.70
2022-11-07T03:37:30.381Z,4.00
2022-11-07T03:38:30.571Z,2.90
2022-11-07T03:39:30.720Z,3.80
2022-11-07T03:40:30.929Z,3.10
2022-11-07T03:41:31.081Z,4.90
2022-11-07T03:42:31.240Z,3.10
2022-11-07T03:43:31.411Z,4.50
2022-11-07T03:44:31.570Z,3.10
2022-11-07T03:45:31.730Z,5.30
2022-11-07T03:46:31.920Z,3.30
2022-11-07T03:47:32.080Z,6.00
2022-11-07T03:48:32.270Z,3.70
2022-11-07T03:49:32.439Z,3.60
2022-11-07T03:50:32.603Z,8.00
2022-11-07T03:51:32.760Z,3.30
2022-11-07T03:52:32.920Z,3.70
2022-11-07T03:53:33.094Z,4.50
2022-11-07T03:54:33.254Z,4.30
2022-11-07T03:55:33.420Z,3.30
2022-11-07T03:56:33.577Z,3.40
2022-11-07T03:57:33.731Z,2.30
2022-11-07T03:58:33.910Z,3.30
2022-11-07T03:59:34.060Z,4.60
2022-11-07T04:00:34.260Z,4.70
2022-11-07T04:01:34.557Z,2.60
2022-11-07T04:02:34.710Z,2.70
2022-11-07T04:03:34.799Z,2.80
2022-11-07T04:04:34.968Z,2.70
2022-11-07T04:05:35.119Z,4.50
2022-11-07T04:06:35.319Z,3.60
2022-11-07T04:07:35.509Z,3.10
2022-11-07T04:08:35.661Z,3.10
2022-11-07T04:09:35.819Z,5.00
2022-11-07T04:10:35.980Z,4.00
2022-11-07T04:11:36.141Z,2.50
2022-11-07T04:12:36.304Z,3.80
2022-11-07T04:13:36.478Z,2.50
2022-11-07T04:14:36.640Z,2.50
2022-11-07T04:15:36.801Z,2.60
2022-11-07T04:16:36.960Z,3.10
2022-11-07T04:17:37.129Z,2.50
2022-11-07T04:18:37.299Z,2.90
2022-11-07T04:19:37.459Z,3.50
2022-11-07T04:20:37.632Z,4.10
2022-11-07T04:21:37.789Z,3.70
2022-11-07T04:22:37.949Z,2.70
2022-11-07T04:23:38.121Z,4.30
2022-11-07T04:24:42.892Z,3.10
2022-11-07T04:25:39.467Z,2.00
2022-11-07T04:26:38.678Z,3.30
2022-11-07T04:27:38.849Z,2.30
2022-11-07T04:28:39.026Z,3.20
2022-11-07T04:29:39.188Z,3.00
2022-11-07T04:30:39.349Z,6.50
2022-11-07T04:31:39.507Z,5.20
2022-11-07T04:32:39.670Z,3.40
2022-11-07T04:33:39.841Z,2.10
2022-11-07T04:34:40.013Z,3.10
2022-11-07T04:35:40.168Z,3.10
2022-11-07T04:36:40.340Z,2.00
2022-11-07T04:37:40.499Z,1.60
2022-11-07T04:38:40.668Z,2.50
2022-11-07T04:39:40.830Z,2.10
2022-11-07T04:40:40.997Z,1.70
2022-11-07T04:41:41.161Z,2.90
2022-11-07T04:42:41.317Z,2.40
2022-11-07T04:43:41.487Z,2.20
2022-11-07T04:44:41.645Z,3.30
2022-11-07T04:45:41.799Z,2.20
2022-11-07T04:46:41.988Z,2.50
2022-11-07T04:47:42.148Z,2.80
2022-11-07T04:48:42.368Z,3.10
2022-11-07T04:49:42.528Z,2.00
2022-11-07T04:50:42.687Z,1.90
2022-11-07T04:51:42.838Z,2.60
2022-11-07T04:52:42.998Z,3.00
2022-11-07T04:53:43.173Z,2.20
2022-11-07T04:54:43.329Z,2.90
2022-11-07T04:55:43.487Z,2.60
2022-11-07T04:56:43.647Z,2.20
2022-11-07T04:57:43.816Z,1.70
2022-11-07T04:58:43.988Z,1.70
2022-11-07T04:59:44.148Z,4.30
2022-11-07T05:00:44.309Z,2.70
2022-11-07T05:01:44.521Z,2.50
2022-11-07T05:02:44.669Z,3.50
2022-11-07T05:03:44.808Z,3.10
2022-11-07T05:04:44.998Z,2.90
2022-11-07T05:05:45.179Z,2.70
2022-11-07T05:06:45.327Z,2.70
2022-11-07T05:07:45.497Z,1.50
2022-11-07T05:08:45.658Z,2.90
2022-11-07T05:09:45.817Z,1.80
2022-11-07T05:10:46.007Z,1.50
2022-11-07T05:11:46.167Z,3.20
2022-11-07T05:12:46.337Z,3.50
2022-11-07T05:13:46.498Z,3.60
2022-11-07T05:14:46.659Z,4.00
2022-11-07T05:15:46.817Z,2.30
2022-11-07T05:16:46.982Z,3.10
2022-11-07T05:17:47.159Z,1.70
2022-11-07T05:18:47.317Z,2.80
2022-11-07T05:19:47.478Z,1.60
2022-11-07T05:20:47.673Z,2.10
2022-11-07T05:21:47.824Z,1.70
2022-11-07T05:22:51.178Z,1.60
2022-11-07T05:23:49.177Z,4.00
2022-11-07T05:24:48.366Z,2.00
2022-11-07T05:25:48.546Z,2.20
2022-11-07T05:26:48.698Z,1.60
2022-11-07T05:27:48.867Z,3.10
2022-11-07T05:28:49.037Z,1.70
2022-11-07T05:29:49.197Z,3.50
2022-11-07T05:30:49.381Z,3.40
2022-11-07T05:31:49.529Z,2.10
2022-11-07T05:32:49.737Z,1.90
2022-11-07T05:33:49.905Z,2.40
2022-11-07T05:34:50.067Z,3.70
2022-11-07T05:35:50.216Z,1.40
2022-11-07T05:36:50.416Z,1.00
2022-11-07T05:37:50.596Z,1.50
2022-11-07T05:38:50.757Z,1.70
2022-11-07T05:39:54.853Z,1.80
2022-11-07T05:40:51.087Z,3.50
2022-11-07T05:41:51.247Z,1.00
2022-11-07T05:42:51.464Z,3.30
2022-11-07T05:43:51.591Z,2.60
2022-11-07T05:44:51.748Z,2.70
2022-11-07T05:45:51.907Z,1.10
2022-11-07T05:46:52.085Z,1.90
2022-11-07T05:47:52.253Z,2.90
2022-11-07T05:48:55.368Z,1.60
2022-11-07T05:49:53.589Z,1.60
2022-11-07T05:50:52.726Z,2.20
2022-11-07T05:51:52.907Z,3.00
2022-11-07T05:52:53.094Z,2.80
2022-11-07T05:53:53.245Z,4.50
2022-11-07T05:54:53.405Z,4.50
2022-11-07T05:55:53.567Z,2.70
2022-11-07T05:56:53.765Z,1.80
2022-11-07T05:57:53.934Z,3.10
2022-11-07T05:58:54.106Z,2.80
2022-11-07T05:59:54.295Z,1.40
2022-11-07T06:00:54.470Z,1.60
2022-11-07T06:01:54.766Z,2.90
2022-11-07T06:02:54.987Z,1.90
2022-11-07T06:03:55.017Z,3.00
2022-11-07T06:04:55.186Z,2.40
2022-11-07T06:05:55.367Z,1.00
2022-11-07T06:06:55.571Z,1.40
2022-11-07T06:07:55.715Z,1.10
2022-11-07T06:08:55.894Z,1.40
2022-11-07T06:09:56.107Z,1.60
2022-11-07T06:10:56.257Z,3.10
2022-11-07T06:11:56.449Z,2.70
2022-11-07T06:12:56.585Z,2.60
2022-11-07T06:13:56.753Z,10.10
2022-11-07T06:14:56.926Z,2.40
2022-11-07T06:15:57.122Z,2.60
2022-11-07T06:16:57.325Z,2.00
2022-11-07T06:17:57.506Z,1.90
2022-11-07T06:18:57.658Z,2.50
2022-11-07T06:19:57.863Z,3.30
2022-11-07T06:20:58.010Z,0.80
2022-11-07T06:21:58.186Z,0.60
2022-11-07T06:22:58.356Z,2.40
2022-11-07T06:23:58.533Z,1.30
2022-11-07T06:24:58.752Z,2.40
2022-11-07T06:25:58.905Z,4.10
2022-11-07T06:26:59.115Z,1.40
2022-11-07T06:27:59.265Z,1.60
2022-11-07T06:28:59.455Z,1.60
2022-11-07T06:29:59.627Z,1.90
2022-11-07T06:30:59.817Z,1.10
2022-11-07T06:32:00.025Z,1.80
2022-11-07T06:33:00.175Z,0.90
2022-11-07T06:34:00.333Z,1.90
2022-11-07T06:35:00.524Z,0.80
2022-11-07T06:36:00.675Z,1.20
2022-11-07T06:37:03.395Z,2.00
2022-11-07T06:38:01.065Z,0.90
2022-11-07T06:39:01.246Z,0.90
2022-11-07T06:40:01.426Z,1.60
2022-11-07T06:41:01.577Z,1.50
2022-11-07T06:42:01.791Z,1.20
2022-11-07T06:43:01.924Z,3.20
2022-11-07T06:44:02.115Z,1.10
2022-11-07T06:45:02.275Z,3.80
2022-11-07T06:46:02.425Z,3.10
2022-11-07T06:47:02.692Z,1.80
2022-11-07T06:48:02.814Z,2.40
2022-11-07T06:49:02.965Z,2.70
2022-11-07T06:50:03.124Z,2.50
2022-11-07T06:51:03.317Z,3.00
2022-11-07T06:52:03.514Z,3.80
2022-11-07T06:53:03.657Z,2.70
2022-11-07T06:54:03.845Z,1.80
2022-11-07T06:55:03.975Z,0.90
2022-11-07T06:56:04.165Z,2.10
2022-11-07T06:57:04.336Z,1.90
2022-11-07T06:58:04.494Z,1.10
2022-11-07T06:59:04.701Z,3.20
2022-11-07T07:00:04.856Z,2.90
2022-11-07T07:01:05.143Z,2.30
2022-11-07T07:02:05.283Z,5.40
2022-11-07T07:03:05.467Z,1.40
2022-11-07T07:04:05.554Z,1.70
2022-11-07T07:05:05.735Z,1.40
2022-11-07T07:06:05.937Z,2.70
2022-11-07T07:07:06.123Z,2.10
2022-11-07T07:08:06.264Z,2.70
2022-11-07T07:09:06.463Z,2.80
2022-11-07T07:10:06.627Z,1.30
2022-11-07T07:11:06.806Z,1.20
2022-11-07T07:12:07.007Z,1.30
2022-11-07T07:13:07.176Z,2.10
2022-11-07T07:14:11.447Z,1.10
2022-11-07T07:15:07.532Z,12.10
2022-11-07T07:16:07.706Z,3.70
2022-11-07T07:17:07.896Z,5.20
2022-11-07T07:18:08.056Z,3.20
2022-11-07T07:19:08.192Z,9.00
2022-11-07T07:20:08.609Z,2.40
2022-11-07T07:21:08.546Z,1.90
2022-11-07T07:22:08.705Z,3.90
2022-11-07T07:23:08.886Z,1.40
2022-11-07T07:24:09.047Z,4.40
2022-11-07T07:25:09.224Z,1.50
2022-11-07T07:26:09.404Z,0.80
2022-11-07T07:27:09.595Z,1.60
2022-11-07T07:28:09.785Z,2.70
2022-11-07T07:29:09.925Z,0.80
2022-11-07T07:30:10.118Z,4.80
2022-11-07T07:31:10.264Z,1.40
2022-11-07T07:32:10.455Z,1.00
2022-11-07T07:33:10.606Z,4.30
2022-11-07T07:34:10.791Z,1.10
2022-11-07T07:35:10.980Z,1.50
2022-11-07T07:36:14.204Z,2.00
2022-11-07T07:37:12.325Z,1.70
2022-11-07T07:38:11.493Z,2.00
2022-11-07T07:39:11.633Z,1.00
2022-11-07T07:40:11.846Z,1.30
2022-11-07T07:41:12.095Z,2.40
2022-11-07T07:42:12.175Z,1.70
2022-11-07T07:43:12.549Z,1.40
2022-11-07T07:44:12.495Z,2.30
2022-11-07T07:45:12.714Z,2.70
2022-11-07T07:46:12.843Z,2.40
2022-11-07T07:47:13.045Z,1.50
2022-11-07T07:48:13.195Z,1.70
2022-11-07T07:49:13.376Z,1.10
2022-11-07T07:50:13.557Z,3.10
2022-11-07T07:51:13.715Z,2.70
2022-11-07T07:52:13.915Z,2.70
2022-11-07T07:53:14.095Z,1.60
2022-11-07T07:54:14.245Z,4.00
2022-11-07T07:55:14.423Z,2.30
2022-11-07T07:56:14.605Z,6.40
2022-11-07T07:57:14.804Z,1.10
2022-11-07T07:58:14.985Z,1.20
2022-11-07T07:59:15.132Z,2.50
2022-11-07T08:00:15.341Z,2.60
2022-11-07T08:01:15.633Z,3.10
2022-11-07T08:02:15.710Z,1.60
2022-11-07T08:03:16.089Z,1.50
2022-11-07T08:04:16.025Z,1.00
2022-11-07T08:05:16.205Z,2.60
2022-11-07T08:06:16.385Z,2.00
2022-11-07T08:07:16.588Z,1.40
2022-11-07T08:08:16.787Z,1.60
2022-11-07T08:09:16.942Z,2.80
2022-11-07T08:10:40.212Z,2.10
2022-11-07T08:11:18.272Z,3.10
2022-11-07T08:12:17.476Z,3.30
2022-11-07T08:13:17.883Z,2.40
2022-11-07T08:14:17.835Z,2.10
2022-11-07T08:15:17.975Z,1.70
2022-11-07T08:16:18.164Z,1.40
2022-11-07T08:17:18.355Z,1.00
2022-11-07T08:18:18.524Z,2.30
2022-11-07T08:19:18.655Z,2.80
2022-11-07T08:20:18.844Z,2.40
2022-11-07T08:21:19.038Z,2.30
2022-11-07T08:22:19.217Z,1.40
2022-11-07T08:23:19.818Z,0.60
2022-11-07T08:24:19.561Z,1.00
2022-11-07T08:25:19.744Z,1.60
2022-11-07T08:26:19.933Z,3.10
2022-11-07T08:27:20.122Z,1.80
2022-11-07T08:28:20.266Z,1.10
2022-11-07T08:29:20.465Z,1.40
2022-11-07T08:30:20.617Z,1.40
2022-11-07T08:31:20.768Z,2.80
2022-11-07T08:32:20.980Z,2.90
2022-11-07T08:33:21.160Z,1.00
2022-11-07T08:34:21.292Z,3.30
2022-11-07T08:35:21.470Z,1.90
2022-11-07T08:36:21.640Z,1.30
2022-11-07T08:37:21.804Z,1.60
2022-11-07T08:38:21.959Z,1.80
2022-11-07T08:39:22.138Z,1.50
2022-11-07T08:40:22.317Z,0.80
2022-11-07T08:41:22.739Z,2.50
2022-11-07T08:42:22.692Z,1.90
2022-11-07T08:43:22.905Z,3.90
2022-11-07T08:44:23.047Z,1.40
2022-11-07T08:45:23.218Z,1.40
2022-11-07T08:46:23.417Z,1.70
2022-11-07T08:47:23.600Z,2.10
2022-11-07T08:48:23.857Z,1.10
2022-11-07T08:49:23.959Z,1.20
2022-11-07T08:50:24.177Z,2.80
2022-11-07T08:51:24.307Z,0.60
2022-11-07T08:52:24.478Z,2.70
2022-11-07T08:53:24.659Z,1.70
2022-11-07T08:54:24.840Z,1.10
2022-11-07T08:55:25.009Z,0.60
2022-11-07T08:56:25.248Z,0.90
2022-11-07T08:57:25.350Z,1.90
2022-11-07T08:58:29.826Z,0.80
2022-11-07T08:59:25.722Z,2.60
2022-11-07T09:00:25.909Z,2.30
2022-11-07T09:01:26.187Z,1.80
2022-11-07T09:04:27.700Z,1.90
2022-11-07T09:05:26.828Z,1.10
2022-11-07T09:06:27.017Z,1.60
2022-11-07T09:07:27.144Z,1.80
2022-11-07T09:08:27.334Z,0.80
2022-11-07T09:09:27.513Z,1.90
2022-11-07T09:10:27.692Z,2.40
2022-11-07T09:11:27.884Z,3.40
2022-11-07T09:12:28.082Z,1.00
2022-11-07T09:13:28.222Z,1.30
2022-11-07T09:14:28.411Z,3.00
2022-11-07T09:15:28.602Z,0.70
2022-11-07T09:16:28.762Z,1.30
2022-11-07T09:17:28.971Z,1.00
2022-11-07T09:18:29.102Z,1.40
2022-11-07T09:19:29.283Z,3.80
2022-11-07T09:20:29.461Z,2.30
2022-11-07T09:21:29.672Z,1.10
2022-11-07T09:22:29.805Z,3.20
2022-11-07T09:23:30.005Z,1.80
2022-11-07T09:24:30.138Z,1.40
2022-11-07T09:25:30.352Z,2.00
2022-11-07T09:26:30.524Z,2.30
2022-11-07T09:27:30.659Z,1.10
2022-11-07T09:28:30.853Z,3.90
2022-11-07T09:29:30.995Z,2.10
2022-11-07T09:30:31.183Z,1.80
2022-11-07T09:31:31.364Z,0.70
2022-11-07T09:32:44.594Z,2.00
2022-11-07T09:33:32.715Z,1.40
2022-11-07T09:34:31.905Z,2.50
2022-11-07T09:35:32.077Z,1.10
2022-11-07T09:36:32.285Z,1.60
2022-11-07T09:37:32.425Z,3.20
2022-11-07T09:38:32.599Z,1.60
2022-11-07T09:39:32.747Z,2.70
2022-11-07T09:40:32.934Z,0.90
2022-11-07T09:41:33.178Z,1.70
2022-11-07T09:42:33.285Z,1.80
2022-11-07T09:43:33.454Z,0.70
2022-11-07T09:44:37.345Z,0.60
2022-11-07T09:45:33.797Z,1.70
2022-11-07T09:46:33.997Z,2.10
2022-11-07T09:47:34.152Z,2.90
2022-11-07T09:48:34.360Z,1.70
2022-11-07T09:49:34.536Z,1.70
2022-11-07T09:50:34.675Z,2.20
2022-11-07T09:51:34.874Z,2.40
2022-11-07T09:52:35.044Z,1.30
2022-11-07T09:53:35.215Z,1.30
2022-11-07T09:54:35.406Z,0.90
2022-11-07T09:55:35.587Z,0.90
2022-11-07T09:56:35.786Z,0.90
2022-11-07T09:57:35.953Z,1.80
2022-11-07T09:58:36.086Z,2.20
2022-11-07T09:59:36.279Z,0.90
2022-11-07T10:00:36.524Z,1.20
2022-11-07T10:01:36.882Z,1.10
2022-11-07T10:02:36.817Z,3.20
2022-11-07T10:03:37.038Z,2.80
2022-11-07T10:04:37.176Z,3.20
2022-11-07T10:05:37.357Z,2.30
2022-11-07T10:06:37.546Z,2.00
2022-11-07T10:07:37.726Z,1.60
2022-11-07T10:08:37.906Z,2.30
2022-11-07T10:09:38.099Z,2.20
2022-11-07T10:10:38.296Z,3.50
2022-11-07T10:11:39.437Z,3.00
2022-11-07T10:12:44.149Z,3.40
2022-11-07T10:13:39.787Z,1.90
2022-11-07T10:14:38.945Z,0.70
2022-11-07T10:15:39.143Z,3.40
2022-11-07T10:16:39.297Z,1.60
2022-11-07T10:17:39.477Z,1.40
2022-11-07T10:18:39.657Z,2.70
2022-11-07T10:19:39.837Z,3.00
2022-11-07T10:20:40.019Z,2.50
2022-11-07T10:21:40.211Z,3.60
2022-11-07T10:22:40.366Z,1.40
2022-11-07T10:23:40.549Z,1.10
2022-11-07T10:24:40.726Z,2.80
2022-11-07T10:25:40.929Z,6.30
2022-11-07T10:26:41.087Z,1.90
2022-11-07T10:27:41.266Z,5.20
2022-11-07T10:28:41.448Z,2.40
2022-11-07T10:29:44.639Z,0.70
2022-11-07T10:30:41.788Z,1.30
2022-11-07T10:31:41.987Z,1.30
2022-11-07T10:32:42.177Z,4.80
2022-11-07T10:33:42.306Z,5.40
2022-11-07T10:34:42.480Z,3.20
2022-11-07T10:35:42.649Z,0.80
2022-11-07T10:36:42.838Z,3.30
2022-11-07T10:37:43.023Z,0.80
2022-11-07T10:38:43.199Z,3.90
2022-11-07T10:39:43.379Z,4.10
2022-11-07T10:40:43.551Z,1.60
2022-11-07T10:41:43.751Z,2.90
2022-11-07T10:42:43.878Z,2.10
2022-11-07T10:43:44.076Z,2.00
2022-11-07T10:44:44.249Z,2.50
2022-11-07T10:45:44.436Z,1.00
2022-11-07T10:46:46.706Z,2.20
2022-11-07T10:47:44.788Z,2.10
2022-11-07T10:48:44.937Z,3.50
2022-11-07T10:49:45.134Z,1.90
2022-11-07T10:50:45.277Z,0.90
2022-11-07T10:51:45.478Z,3.30
2022-11-07T10:52:45.639Z,0.90
2022-11-07T10:53:45.819Z,3.10
2022-11-07T10:54:45.999Z,1.90
2022-11-07T10:55:46.198Z,1.50
2022-11-07T10:56:46.392Z,3.20
2022-11-07T10:57:46.608Z,2.00
2022-11-07T10:58:46.732Z,1.00
2022-11-07T10:59:46.900Z,2.70
2022-11-07T11:00:47.182Z,4.30
2022-11-07T11:01:47.441Z,1.40
2022-11-07T11:02:47.438Z,2.30
2022-11-07T11:03:47.629Z,1.90
2022-11-07T11:04:50.705Z,1.20
2022-11-07T11:05:47.981Z,3.20
2022-11-07T11:06:48.181Z,1.80
2022-11-07T11:07:48.329Z,2.30
2022-11-07T11:08:48.531Z,1.60
2022-11-07T11:09:48.679Z,2.30
2022-11-07T11:10:48.879Z,2.90
2022-11-07T11:11:49.101Z,2.90
2022-11-07T11:12:49.230Z,2.20
2022-11-07T11:13:49.427Z,1.00
2022-11-07T11:14:49.609Z,0.60
2022-11-07T11:15:49.810Z,3.30
2022-11-07T11:16:50.092Z,1.90
2022-11-07T11:17:50.181Z,3.90
2022-11-07T11:18:50.318Z,2.00
2022-11-07T11:19:50.519Z,4.30
2022-11-07T11:20:50.700Z,2.80
2022-11-07T11:21:50.880Z,3.90
2022-11-07T11:22:51.061Z,2.90
2022-11-07T11:23:51.271Z,5.30
2022-11-07T11:24:51.414Z,2.90
2022-11-07T11:25:51.601Z,3.70
2022-11-07T11:26:51.748Z,1.50
2022-11-07T11:27:51.929Z,4.10
2022-11-07T11:28:52.110Z,2.80
2022-11-07T11:29:52.299Z,3.40
2022-11-07T11:30:52.492Z,3.10
2022-11-07T11:31:52.658Z,3.60
2022-11-07T11:32:52.850Z,2.40
2022-11-07T11:33:53.042Z,1.60
2022-11-07T11:34:53.208Z,3.20
2022-11-07T11:35:53.430Z,1.60
2022-11-07T11:36:53.561Z,3.70
2022-11-07T11:37:53.742Z,3.00
2022-11-07T11:38:53.931Z,1.70
2022-11-07T11:39:54.115Z,3.60
2022-11-07T11:41:00.782Z,4.20
2022-11-07T11:41:55.461Z,3.10
2022-11-07T11:42:54.656Z,2.20
2022-11-07T11:43:54.830Z,2.70
2022-11-07T11:44:55.001Z,3.20
2022-11-07T11:45:55.752Z,2.60
2022-11-07T11:46:55.351Z,2.30
2022-11-07T11:47:55.541Z,2.30
2022-11-07T11:48:55.731Z,2.20
2022-11-07T11:49:55.911Z,2.40
2022-11-07T11:50:56.111Z,3.20
2022-11-07T11:51:56.261Z,1.70
2022-11-07T11:52:56.441Z,1.80
2022-11-07T11:53:56.615Z,1.70
2022-11-07T11:54:56.791Z,4.10
2022-11-07T11:55:56.995Z,1.80
2022-11-07T11:56:57.131Z,0.90
2022-11-07T11:57:57.311Z,1.90
2022-11-07T11:58:57.493Z,3.90
2022-11-07T11:59:57.703Z,1.10
2022-11-07T12:00:57.851Z,4.00
2022-11-07T12:01:58.047Z,4.20
2022-11-07T12:02:58.152Z,3.90
2022-11-07T12:04:01.155Z,2.20
2022-11-07T12:04:58.514Z,1.20
2022-11-07T12:05:58.722Z,1.20
2022-11-07T12:06:58.862Z,2.00
2022-11-07T12:07:59.044Z,4.00
2022-11-07T12:08:59.247Z,1.40
2022-11-07T12:09:59.420Z,2.80
2022-11-07T12:10:59.612Z,1.50
2022-11-07T12:11:59.763Z,3.00
2022-11-07T12:12:59.972Z,5.80
2022-11-07T12:14:00.110Z,3.50
2022-11-07T12:15:00.298Z,3.50
2022-11-07T12:16:00.972Z,3.80
2022-11-07T12:17:00.632Z,1.60
2022-11-07T12:18:00.823Z,1.00
2022-11-07T12:19:01.006Z,2.80
2022-11-07T12:20:01.193Z,2.70
2022-11-07T12:21:01.406Z,1.60
2022-11-07T12:22:01.556Z,1.30
2022-11-07T12:23:01.728Z,3.10
2022-11-07T12:24:02.005Z,2.20
2022-11-07T12:25:02.053Z,1.50
2022-11-07T12:26:02.255Z,2.10
2022-11-07T12:27:02.398Z,2.60
2022-11-07T12:28:02.602Z,1.40
2022-11-07T12:29:02.763Z,1.60
2022-11-07T12:30:02.905Z,2.10
2022-11-07T12:31:03.094Z,1.40
2022-11-07T12:32:03.281Z,3.10
2022-11-07T12:33:03.465Z,3.50
2022-11-07T12:34:03.652Z,2.50
2022-11-07T12:35:03.836Z,2.50
2022-11-07T12:36:04.037Z,3.20
2022-11-07T12:37:04.205Z,2.50
2022-11-07T12:38:04.394Z,4.00
2022-11-07T12:39:04.544Z,6.50
2022-11-07T12:40:04.724Z,1.20
2022-11-07T12:41:04.923Z,2.20
2022-11-07T12:42:05.075Z,4.00
2022-11-07T12:43:05.245Z,2.30
2022-11-07T12:44:05.433Z,3.50
2022-11-07T12:45:05.605Z,3.60
2022-11-07T12:46:05.805Z,4.00
2022-11-07T12:47:05.945Z,2.00
2022-11-07T12:48:11.854Z,1.50
2022-11-07T12:49:07.276Z,2.20
2022-11-07T12:50:06.476Z,1.90
2022-11-07T12:51:06.645Z,3.80
2022-11-07T12:52:06.804Z,3.30
2022-11-07T12:53:06.966Z,3.90
2022-11-07T12:54:07.109Z,2.90
2022-11-07T12:55:07.299Z,3.40
2022-11-07T12:56:07.489Z,2.70
2022-11-07T12:57:07.636Z,2.60
2022-11-07T12:58:07.817Z,2.60
2022-11-07T12:59:08.011Z,2.50
2022-11-07T13:00:08.193Z,3.60
2022-11-07T13:01:08.467Z,1.40
2022-11-07T13:02:08.672Z,4.20
2022-11-07T13:03:08.746Z,3.90
2022-11-07T13:04:08.896Z,1.20
2022-11-07T13:05:09.076Z,2.70
2022-11-07T13:06:09.290Z,3.90
2022-11-07T13:07:09.429Z,2.50
2022-11-07T13:08:09.587Z,1.30
2022-11-07T13:09:09.785Z,7.40
2022-11-07T13:10:10.038Z,3.70
2022-11-07T13:11:10.126Z,3.20
2022-11-07T13:12:10.269Z,2.50
2022-11-07T13:13:10.446Z,1.80
2022-11-07T13:14:10.642Z,1.40
2022-11-07T13:15:10.817Z,2.80
2022-11-07T13:16:15.781Z,1.10
2022-11-07T13:17:12.158Z,1.60
2022-11-07T13:18:11.365Z,2.30
2022-11-07T13:19:11.500Z,3.90
2022-11-07T13:20:11.699Z,6.40
2022-11-07T13:21:11.867Z,1.50
2022-11-07T13:22:12.008Z,1.20
2022-11-07T13:23:12.188Z,2.10